createdAt,value
2023-02-23T00:01:39.973Z,100.00
2023-02-23T00:04:11.660Z,100.00
2023-02-23T00:06:43.524Z,100.00
2023-02-23T00:09:28.031Z,100.00
2023-02-23T00:11:59.932Z,100.00
2023-02-23T00:14:31.455Z,100.00
2023-02-23T00:17:03.365Z,100.00
2023-02-23T00:19:37.737Z,100.00
2023-02-23T00:22:09.753Z,100.00
2023-02-23T00:24:42.527Z,100.00
2023-02-23T00:27:18.899Z,100.00
2023-02-23T00:29:51.183Z,100.00
2023-02-23T00:32:23.994Z,100.00
2023-02-23T00:34:55.875Z,100.00
2023-02-23T00:37:27.346Z,100.00
2023-02-23T00:39:59.175Z,100.00
2023-02-23T00:42:32.345Z,100.00
2023-02-23T00:45:11.621Z,100.00
2023-02-23T00:47:43.111Z,100.00
2023-02-23T00:50:18.322Z,100.00
2023-02-23T00:52:49.830Z,100.00
2023-02-23T00:55:21.772Z,100.00
2023-02-23T00:57:53.233Z,100.00
2023-02-23T01:00:27.480Z,100.00
2023-02-23T01:02:58.967Z,100.00
2023-02-23T01:05:30.477Z,100.00
2023-02-23T01:08:01.948Z,100.00
2023-02-23T01:10:33.809Z,100.00
2023-02-23T01:13:06.003Z,100.00
2023-02-23T01:15:37.879Z,100.00
2023-02-23T01:18:09.404Z,100.00
2023-02-23T01:20:44.129Z,100.00
2023-02-23T01:23:15.963Z,100.00
2023-02-23T01:25:48.327Z,100.00
2023-02-23T01:28:19.839Z,100.00
2023-02-23T01:30:51.738Z,100.00
2023-02-23T01:33:23.287Z,100.00
2023-02-23T01:35:54.958Z,100.00
2023-02-23T01:38:26.499Z,100.00
2023-02-23T01:40:58.403Z,100.00
2023-02-23T01:43:30.059Z,100.00
2023-02-23T01:46:01.911Z,100.00
2023-02-23T01:48:34.265Z,100.00
2023-02-23T01:51:06.067Z,100.00
2023-02-23T01:53:37.558Z,100.00
2023-02-23T01:56:12.076Z,100.00
2023-02-23T01:58:43.620Z,100.00
2023-02-23T02:01:15.138Z,100.00
2023-02-23T02:03:46.633Z,100.00
2023-02-23T02:06:18.447Z,100.00
2023-02-23T02:08:50.722Z,100.00
2023-02-23T02:11:35.978Z,100.00
2023-02-23T02:14:12.801Z,100.00
2023-02-23T02:16:44.405Z,100.00
2023-02-23T02:19:18.642Z,100.00
2023-02-23T02:21:52.021Z,100.00
2023-02-23T02:24:23.516Z,100.00
2023-02-23T02:26:55.426Z,100.00
2023-02-23T02:29:28.688Z,100.00
2023-02-23T02:32:01.499Z,100.00
2023-02-23T02:34:33.025Z,100.00
2023-02-23T02:37:04.847Z,100.00
2023-02-23T02:39:36.677Z,100.00
2023-02-23T02:42:08.474Z,100.00
2023-02-23T02:44:41.112Z,100.00
2023-02-23T02:47:13.100Z,100.00
2023-02-23T02:49:44.618Z,100.00
2023-02-23T02:52:16.634Z,100.00
2023-02-23T02:54:48.206Z,100.00
2023-02-23T02:57:20.010Z,100.00
2023-02-23T03:00:10.461Z,100.00
2023-02-23T03:03:00.919Z,100.00
2023-02-23T03:05:51.348Z,100.00
2023-02-23T03:08:41.551Z,100.00
2023-02-23T03:11:32.025Z,100.00
2023-02-23T03:14:22.279Z,100.00
2023-02-23T03:17:12.979Z,100.00
2023-02-23T03:20:03.026Z,100.00
2023-02-23T03:22:53.464Z,100.00
2023-02-23T03:25:43.999Z,100.00
2023-02-23T03:28:33.997Z,100.00
2023-02-23T03:31:24.061Z,100.00
2023-02-23T03:34:14.632Z,100.00
2023-02-23T03:37:05.057Z,100.00
2023-02-23T03:39:55.176Z,100.00
2023-02-23T03:42:45.508Z,100.00
2023-02-23T03:45:35.654Z,100.00
2023-02-23T03:48:25.914Z,100.00
2023-02-23T03:51:16.429Z,100.00
2023-02-23T03:54:06.855Z,100.00
2023-02-23T03:56:57.251Z,100.00
2023-02-23T03:59:47.328Z,100.00
2023-02-23T04:02:37.902Z,100.00
2023-02-23T04:05:28.077Z,100.00
2023-02-23T04:08:18.594Z,100.00
2023-02-23T04:11:08.817Z,100.00
2023-02-23T04:13:40.279Z,100.00
2023-02-23T04:16:11.992Z,100.00
2023-02-23T04:18:43.567Z,100.00
2023-02-23T04:21:15.318Z,100.00
2023-02-23T04:23:46.825Z,100.00
2023-02-23T04:26:18.513Z,100.00
2023-02-23T04:28:50.011Z,100.00
2023-02-23T04:31:25.216Z,100.00
2023-02-23T04:33:57.606Z,100.00
2023-02-23T04:36:29.142Z,100.00
2023-02-23T04:39:00.683Z,100.00
2023-02-23T04:41:32.532Z,100.00
2023-02-23T04:44:04.904Z,100.00
2023-02-23T04:46:36.803Z,100.00
2023-02-23T04:49:08.320Z,100.00
2023-02-23T04:51:40.280Z,100.00
2023-02-23T04:54:11.793Z,100.00
2023-02-23T04:56:43.800Z,100.00
2023-02-23T04:59:15.303Z,100.00
2023-02-23T05:01:47.164Z,100.00
2023-02-23T05:04:18.770Z,100.00
2023-02-23T05:06:50.636Z,100.00
2023-02-23T05:09:22.131Z,100.00
2023-02-23T05:11:55.421Z,100.00
2023-02-23T05:14:27.050Z,100.00
2023-02-23T05:16:58.583Z,100.00
2023-02-23T05:19:30.115Z,100.00
2023-02-23T05:22:01.912Z,100.00
2023-02-23T05:24:33.455Z,100.00
2023-02-23T05:27:05.291Z,100.00
2023-02-23T05:29:36.772Z,100.00
2023-02-23T05:32:08.696Z,100.00
2023-02-23T05:34:40.715Z,100.00
2023-02-23T05:37:12.225Z,100.00
2023-02-23T05:39:43.727Z,100.00
2023-02-23T05:42:15.442Z,100.00
2023-02-23T05:44:46.940Z,100.00
2023-02-23T05:47:18.765Z,100.00
2023-02-23T05:49:50.264Z,100.00
2023-02-23T05:52:22.031Z,100.00
2023-02-23T05:54:53.534Z,100.00
2023-02-23T05:57:25.166Z,100.00
2023-02-23T05:59:56.736Z,100.00
2023-02-23T06:02:28.278Z,100.00
2023-02-23T06:04:59.779Z,100.00
2023-02-23T06:07:31.637Z,100.00
2023-02-23T06:10:03.153Z,100.00
2023-02-23T06:12:34.817Z,100.00
2023-02-23T06:15:06.315Z,100.00
2023-02-23T06:17:38.117Z,100.00
2023-02-23T06:20:09.591Z,100.00
2023-02-23T06:22:42.287Z,100.00
2023-02-23T06:25:13.829Z,100.00
2023-02-23T06:27:45.630Z,100.00
2023-02-23T06:30:17.106Z,100.00
2023-02-23T06:32:48.944Z,100.00
2023-02-23T06:35:20.589Z,100.00
2023-02-23T06:37:52.455Z,100.00
2023-02-23T06:40:23.976Z,100.00
2023-02-23T06:42:55.817Z,100.00
2023-02-23T06:45:27.325Z,100.00
2023-02-23T06:47:59.532Z,100.00
2023-02-23T06:50:31.102Z,100.00
2023-02-23T06:53:03.109Z,100.00
2023-02-23T06:55:34.642Z,100.00
2023-02-23T06:58:07.468Z,100.00
2023-02-23T07:00:42.884Z,100.00
2023-02-23T07:03:14.936Z,100.00
2023-02-23T07:05:46.477Z,100.00
2023-02-23T07:08:18.580Z,100.00
2023-02-23T07:10:50.103Z,100.00
2023-02-23T07:13:22.134Z,100.00
2023-02-23T07:15:53.639Z,100.00
2023-02-23T07:18:25.190Z,100.00
2023-02-23T07:20:56.722Z,100.00
2023-02-23T07:23:28.661Z,100.00
2023-02-23T07:26:00.890Z,100.00
2023-02-23T07:28:32.899Z,100.00
2023-02-23T07:31:04.398Z,100.00
2023-02-23T07:33:36.254Z,100.00
2023-02-23T07:36:07.769Z,100.00
2023-02-23T07:38:39.754Z,100.00
2023-02-23T07:41:11.226Z,100.00
2023-02-23T07:43:42.714Z,100.00
2023-02-23T07:46:15.508Z,100.00
2023-02-23T07:48:47.506Z,100.00
2023-02-23T07:51:19.320Z,100.00
2023-02-23T07:53:51.052Z,100.00
2023-02-23T07:56:22.533Z,100.00
2023-02-23T07:58:54.741Z,100.00
2023-02-23T08:01:26.294Z,100.00
2023-02-23T08:03:58.220Z,100.00
2023-02-23T08:06:29.744Z,100.00
2023-02-23T08:09:01.654Z,100.00
2023-02-23T08:11:33.146Z,100.00
2023-02-23T08:14:04.894Z,100.00
2023-02-23T08:16:36.533Z,100.00
2023-02-23T08:19:08.332Z,100.00
2023-02-23T08:21:39.814Z,100.00
2023-02-23T08:24:11.717Z,100.00
2023-02-23T08:26:43.184Z,100.00
2023-02-23T08:29:14.961Z,100.00
2023-02-23T08:31:46.554Z,100.00
2023-02-23T08:34:18.676Z,100.00
2023-02-23T08:36:50.145Z,100.00
2023-02-23T08:39:22.276Z,100.00
2023-02-23T08:41:55.407Z,100.00
2023-02-23T08:44:26.928Z,100.00
2023-02-23T08:46:58.475Z,100.00
2023-02-23T08:49:32.532Z,100.00
2023-02-23T08:52:04.028Z,100.00
2023-02-23T08:54:35.872Z,100.00
2023-02-23T08:57:07.348Z,100.00
2023-02-23T08:59:39.226Z,100.00
2023-02-23T09:02:10.819Z,100.00
2023-02-23T09:04:43.127Z,100.00
2023-02-23T09:07:14.665Z,100.00
2023-02-23T09:09:46.682Z,100.00
2023-02-23T09:12:18.173Z,100.00
2023-02-23T09:14:51.402Z,100.00
2023-02-23T09:17:23.055Z,100.00
2023-02-23T09:19:54.572Z,100.00
2023-02-23T09:22:26.123Z,100.00
2023-02-23T09:24:57.629Z,99.76
2023-02-23T09:27:29.223Z,100.00
2023-02-23T09:30:00.738Z,100.00
2023-02-23T09:32:32.659Z,100.00
2023-02-23T09:35:04.243Z,100.00
2023-02-23T09:37:36.067Z,100.00
2023-02-23T09:40:07.764Z,99.70
2023-02-23T09:42:39.748Z,98.57
2023-02-23T09:45:11.247Z,98.46
2023-02-23T09:47:46.290Z,97.91
2023-02-23T09:50:17.877Z,96.12
2023-02-23T09:52:49.707Z,94.88
2023-02-23T09:55:21.196Z,96.27
2023-02-23T09:57:53.052Z,91.46
2023-02-23T10:00:27.686Z,92.13
2023-02-23T10:02:59.595Z,89.19
2023-02-23T10:05:31.805Z,89.39
2023-02-23T10:08:03.712Z,88.22
2023-02-23T10:10:35.291Z,88.85
2023-02-23T10:13:08.462Z,89.24
2023-02-23T10:15:40.022Z,87.76
2023-02-23T10:18:12.336Z,88.12
2023-02-23T10:20:43.830Z,86.63
2023-02-23T10:23:15.499Z,87.80
2023-02-23T10:25:46.967Z,90.08
2023-02-23T10:28:18.917Z,89.96
2023-02-23T10:30:50.486Z,87.31
2023-02-23T10:33:22.195Z,92.36
2023-02-23T10:36:07.208Z,89.63
2023-02-23T10:38:43.851Z,89.24
2023-02-23T10:41:15.366Z,88.29
2023-02-23T10:43:46.900Z,87.32
2023-02-23T10:46:18.457Z,88.04
2023-02-23T10:48:50.395Z,85.68
2023-02-23T10:51:22.107Z,85.01
2023-02-23T10:53:53.775Z,83.97
2023-02-23T10:56:25.330Z,84.73
2023-02-23T10:58:57.184Z,81.69
2023-02-23T11:01:28.923Z,80.54
2023-02-23T11:04:05.975Z,82.04
2023-02-23T11:06:42.210Z,84.55
2023-02-23T11:09:13.995Z,81.10
2023-02-23T11:11:45.471Z,81.53
2023-02-23T11:14:17.328Z,78.84
2023-02-23T11:16:48.854Z,80.40
2023-02-23T11:19:20.757Z,79.53
2023-02-23T11:21:52.576Z,82.26
2023-02-23T11:24:24.141Z,81.97
2023-02-23T11:26:57.968Z,84.14
2023-02-23T11:29:29.501Z,83.83
2023-02-23T11:32:01.136Z,84.77
2023-02-23T11:34:33.032Z,87.92
2023-02-23T11:37:04.525Z,88.31
2023-02-23T11:39:38.777Z,89.16
2023-02-23T11:42:10.302Z,88.16
2023-02-23T11:44:42.153Z,84.99
2023-02-23T11:47:13.655Z,86.48
2023-02-23T11:49:45.537Z,88.33
2023-02-23T11:52:17.115Z,88.42
2023-02-23T11:54:48.926Z,87.63
2023-02-23T11:57:20.494Z,85.00
2023-02-23T11:59:52.446Z,84.20
2023-02-23T12:02:27.108Z,85.66
2023-02-23T12:05:01.298Z,87.60
2023-02-23T12:07:38.881Z,85.17
2023-02-23T12:10:10.774Z,85.23
2023-02-23T12:12:42.289Z,85.61
2023-02-23T12:15:14.916Z,84.34
2023-02-23T12:17:47.151Z,88.29
2023-02-23T12:20:18.926Z,83.83
2023-02-23T12:22:50.414Z,85.41
2023-02-23T12:25:23.495Z,86.34
2023-02-23T12:27:55.030Z,85.84
2023-02-23T12:30:26.870Z,83.62
2023-02-23T12:33:00.277Z,82.99
2023-02-23T12:35:32.113Z,83.78
2023-02-23T12:38:03.643Z,83.17
2023-02-23T12:40:35.494Z,81.93
2023-02-23T12:43:08.605Z,84.98
2023-02-23T12:45:40.452Z,84.37
2023-02-23T12:48:11.926Z,87.83
2023-02-23T12:50:43.882Z,85.45
2023-02-23T12:53:15.375Z,86.34
2023-02-23T12:55:47.638Z,88.94
2023-02-23T12:58:19.326Z,89.42
2023-02-23T13:00:51.302Z,87.04
2023-02-23T13:03:22.976Z,88.21
2023-02-23T13:05:54.809Z,88.73
2023-02-23T13:08:26.896Z,88.15
2023-02-23T13:10:58.634Z,86.87
2023-02-23T13:13:30.121Z,86.34
2023-02-23T13:16:01.986Z,85.53
2023-02-23T13:18:33.492Z,85.72
2023-02-23T13:21:05.790Z,84.88
2023-02-23T13:23:37.341Z,85.60
2023-02-23T13:26:10.919Z,83.95
2023-02-23T13:28:42.420Z,87.70
2023-02-23T13:31:14.212Z,89.22
2023-02-23T13:33:45.793Z,90.74
2023-02-23T13:36:17.693Z,90.96
2023-02-23T13:38:49.534Z,92.53
2023-02-23T13:41:21.206Z,92.33
2023-02-23T13:43:53.072Z,90.52
2023-02-23T13:46:25.412Z,93.07
2023-02-23T13:48:59.829Z,92.50
2023-02-23T13:51:33.371Z,91.68
2023-02-23T13:54:06.163Z,91.03
2023-02-23T13:56:38.219Z,94.00
2023-02-23T13:59:10.181Z,96.13
2023-02-23T14:01:43.768Z,96.88
2023-02-23T14:04:15.703Z,97.45
2023-02-23T14:06:47.183Z,97.54
2023-02-23T14:09:19.014Z,97.18
2023-02-23T14:11:50.932Z,97.70
2023-02-23T14:14:22.839Z,98.54
2023-02-23T14:16:54.390Z,100.00
2023-02-23T14:19:25.904Z,100.00
2023-02-23T14:21:57.434Z,100.00
2023-02-23T14:24:29.798Z,100.00
2023-02-23T14:27:06.537Z,100.00
2023-02-23T14:29:40.419Z,100.00
2023-02-23T14:32:12.016Z,100.00
2023-02-23T14:34:44.001Z,100.00
2023-02-23T14:37:15.533Z,100.00
2023-02-23T14:39:47.303Z,100.00
2023-02-23T14:42:18.832Z,100.00
2023-02-23T14:44:51.923Z,100.00
2023-02-23T14:47:23.482Z,100.00
2023-02-23T14:49:55.339Z,100.00
2023-02-23T14:52:26.863Z,100.00
2023-02-23T14:54:58.725Z,100.00
2023-02-23T14:57:30.322Z,100.00
2023-02-23T15:00:02.278Z,100.00
2023-02-23T15:02:35.483Z,100.00
2023-02-23T15:05:10.484Z,100.00
2023-02-23T15:07:42.037Z,100.00
2023-02-23T15:10:13.939Z,100.00
2023-02-23T15:12:45.425Z,100.00
2023-02-23T15:15:17.578Z,100.00
2023-02-23T15:17:49.066Z,100.00
2023-02-23T15:20:23.298Z,100.00
2023-02-23T15:22:55.204Z,100.00
2023-02-23T15:25:27.934Z,100.00
2023-02-23T15:27:59.490Z,100.00
2023-02-23T15:30:31.379Z,100.00
2023-02-23T15:33:03.006Z,100.00
2023-02-23T15:35:34.990Z,100.00
2023-02-23T15:38:14.020Z,100.00
2023-02-23T15:40:50.269Z,100.00
2023-02-23T15:43:21.843Z,100.00
2023-02-23T15:45:53.875Z,100.00
2023-02-23T15:48:25.430Z,100.00
2023-02-23T15:50:57.904Z,100.00
2023-02-23T15:53:29.460Z,100.00
2023-02-23T15:56:02.996Z,100.00
2023-02-23T15:58:37.603Z,100.00
2023-02-23T16:01:12.015Z,100.00
2023-02-23T16:03:44.288Z,100.00
2023-02-23T16:06:17.380Z,100.00
2023-02-23T16:08:48.917Z,100.00
2023-02-23T16:11:22.496Z,100.00
2023-02-23T16:13:54.930Z,100.00
2023-02-23T16:16:27.654Z,100.00
2023-02-23T16:19:01.654Z,100.00
2023-02-23T16:21:33.588Z,100.00
2023-02-23T16:24:05.106Z,100.00
2023-02-23T16:26:36.984Z,100.00
2023-02-23T16:29:08.589Z,100.00
2023-02-23T16:31:43.068Z,100.00
2023-02-23T16:34:14.987Z,100.00
2023-02-23T16:36:48.993Z,100.00
2023-02-23T16:39:20.582Z,100.00
2023-02-23T16:41:52.586Z,100.00
2023-02-23T16:44:28.497Z,100.00
2023-02-23T16:47:03.096Z,100.00
2023-02-23T16:49:34.582Z,100.00
2023-02-23T16:52:06.380Z,100.00
2023-02-23T16:54:37.947Z,100.00
2023-02-23T16:57:09.799Z,100.00
2023-02-23T16:59:41.324Z,100.00
2023-02-23T17:02:14.056Z,100.00
2023-02-23T17:04:48.838Z,100.00
2023-02-23T17:07:22.875Z,100.00
2023-02-23T17:09:55.579Z,100.00
2023-02-23T17:12:27.130Z,100.00
2023-02-23T17:14:58.609Z,100.00
2023-02-23T17:17:31.602Z,100.00
2023-02-23T17:20:05.628Z,100.00
2023-02-23T17:22:37.477Z,100.00
2023-02-23T17:25:08.975Z,100.00
2023-02-23T17:27:40.783Z,100.00
2023-02-23T17:30:12.321Z,100.00
2023-02-23T17:32:44.185Z,100.00
2023-02-23T17:35:15.774Z,100.00
2023-02-23T17:37:47.585Z,100.00
2023-02-23T17:40:21.046Z,100.00
2023-02-23T17:42:52.541Z,100.00
2023-02-23T17:45:24.455Z,100.00
2023-02-23T17:47:55.937Z,100.00
2023-02-23T17:50:27.434Z,100.00
2023-02-23T17:52:58.959Z,100.00
2023-02-23T17:55:30.481Z,100.00
2023-02-23T17:58:01.958Z,100.00
2023-02-23T18:00:38.061Z,100.00
2023-02-23T18:03:09.612Z,100.00
2023-02-23T18:05:41.483Z,100.00
2023-02-23T18:08:14.029Z,100.00
2023-02-23T18:10:45.753Z,100.00
2023-02-23T18:13:17.328Z,100.00
2023-02-23T18:15:49.007Z,100.00
2023-02-23T18:18:20.562Z,100.00
2023-02-23T18:20:52.487Z,100.00
2023-02-23T18:23:23.995Z,100.00
2023-02-23T18:25:55.738Z,100.00
2023-02-23T18:28:27.221Z,100.00
2023-02-23T18:30:59.169Z,100.00
2023-02-23T18:33:31.533Z,100.00
2023-02-23T18:36:04.171Z,100.00
2023-02-23T18:38:35.663Z,100.00
2023-02-23T18:41:07.628Z,100.00
2023-02-23T18:43:39.123Z,100.00
2023-02-23T18:46:11.009Z,100.00
2023-02-23T18:48:42.528Z,100.00
2023-02-23T18:51:15.068Z,100.00
2023-02-23T18:53:46.547Z,100.00
2023-02-23T18:56:23.308Z,100.00
2023-02-23T18:58:54.898Z,100.00
2023-02-23T19:01:26.759Z,100.00
2023-02-23T19:03:58.360Z,100.00
2023-02-23T19:06:29.845Z,100.00
2023-02-23T19:09:03.368Z,100.00
2023-02-23T19:11:35.211Z,100.00
2023-02-23T19:14:06.722Z,100.00
2023-02-23T19:16:38.474Z,100.00
2023-02-23T19:19:10.001Z,100.00
2023-02-23T19:21:41.980Z,100.00
2023-02-23T19:24:13.453Z,100.00
2023-02-23T19:26:45.302Z,100.00
2023-02-23T19:29:16.966Z,100.00
2023-02-23T19:31:48.818Z,100.00
2023-02-23T19:34:20.370Z,100.00
2023-02-23T19:36:52.190Z,100.00
2023-02-23T19:39:23.869Z,100.00
2023-02-23T19:41:55.760Z,100.00
2023-02-23T19:44:27.330Z,100.00
2023-02-23T19:46:59.247Z,100.00
2023-02-23T19:49:30.790Z,100.00
2023-02-23T19:52:02.653Z,100.00
2023-02-23T19:54:37.764Z,100.00
2023-02-23T19:57:10.526Z,100.00
2023-02-23T19:59:42.068Z,100.00
2023-02-23T20:02:13.935Z,100.00
2023-02-23T20:04:45.953Z,100.00
2023-02-23T20:07:17.782Z,100.00
2023-02-23T20:09:49.347Z,100.00
2023-02-23T20:12:21.194Z,100.00
2023-02-23T20:14:52.666Z,100.00
2023-02-23T20:17:24.140Z,100.00
2023-02-23T20:19:55.641Z,100.00
2023-02-23T20:22:27.194Z,100.00
2023-02-23T20:24:59.651Z,100.00
2023-02-23T20:27:32.307Z,100.00
2023-02-23T20:30:03.837Z,100.00
2023-02-23T20:32:35.810Z,100.00
2023-02-23T20:35:07.364Z,100.00
2023-02-23T20:37:38.873Z,100.00
2023-02-23T20:40:19.942Z,100.00
2023-02-23T20:42:51.490Z,100.00
2023-02-23T20:45:22.992Z,100.00
2023-02-23T20:47:55.790Z,100.00
2023-02-23T20:50:28.895Z,100.00
2023-02-23T20:53:03.795Z,100.00
2023-02-23T20:55:35.760Z,100.00
2023-02-23T20:58:08.123Z,100.00
2023-02-23T21:00:39.672Z,100.00
2023-02-23T21:03:11.510Z,100.00
2023-02-23T21:05:43.021Z,100.00
2023-02-23T21:08:14.843Z,100.00
2023-02-23T21:10:48.189Z,100.00
2023-02-23T21:13:22.124Z,100.00
2023-02-23T21:15:54.802Z,100.00
2023-02-23T21:18:26.334Z,100.00
2023-02-23T21:20:58.910Z,100.00
2023-02-23T21:23:30.394Z,100.00
2023-02-23T21:26:13.099Z,100.00
2023-02-23T21:28:44.899Z,100.00
2023-02-23T21:31:16.411Z,100.00
2023-02-23T21:33:48.287Z,100.00
2023-02-23T21:36:19.782Z,100.00
2023-02-23T21:38:51.421Z,100.00
2023-02-23T21:41:23.125Z,100.00
2023-02-23T21:43:55.113Z,100.00
2023-02-23T21:46:26.660Z,100.00
2023-02-23T21:48:58.235Z,100.00
2023-02-23T21:51:30.447Z,100.00
2023-02-23T21:54:02.357Z,100.00
2023-02-23T21:56:34.747Z,100.00
2023-02-23T21:59:08.591Z,100.00
2023-02-23T22:01:41.819Z,100.00
2023-02-23T22:04:13.379Z,100.00
2023-02-23T22:06:44.877Z,100.00
2023-02-23T22:09:16.641Z,100.00
2023-02-23T22:11:48.407Z,100.00
2023-02-23T22:14:20.105Z,100.00
2023-02-23T22:16:51.801Z,100.00
2023-02-23T22:19:23.462Z,100.00
2023-02-23T22:21:55.111Z,100.00
2023-02-23T22:24:26.684Z,100.00
2023-02-23T22:27:00.846Z,100.00
2023-02-23T22:29:32.738Z,100.00
2023-02-23T22:32:04.350Z,100.00
2023-02-23T22:34:36.270Z,100.00
2023-02-23T22:37:07.748Z,100.00
2023-02-23T22:39:41.871Z,100.00
2023-02-23T22:42:13.398Z,100.00
2023-02-23T22:44:45.187Z,100.00
2023-02-23T22:47:16.706Z,100.00
2023-02-23T22:49:48.760Z,100.00
2023-02-23T22:52:20.504Z,100.00
2023-02-23T22:54:53.618Z,100.00
2023-02-23T22:57:25.126Z,100.00
2023-02-23T23:00:00.982Z,100.00
2023-02-23T23:02:33.520Z,100.00
2023-02-23T23:05:05.559Z,100.00
2023-02-23T23:07:37.083Z,100.00
2023-02-23T23:10:09.647Z,100.00
2023-02-23T23:12:41.260Z,100.00
2023-02-23T23:15:15.174Z,100.00
2023-02-23T23:17:50.184Z,100.00
2023-02-23T23:20:25.640Z,100.00
2023-02-23T23:22:57.794Z,100.00
2023-02-23T23:25:29.672Z,100.00
2023-02-23T23:28:01.792Z,100.00
2023-02-23T23:30:35.176Z,100.00
2023-02-23T23:33:07.315Z,100.00
2023-02-23T23:35:38.996Z,100.00
2023-02-23T23:38:10.667Z,100.00
2023-02-23T23:40:46.832Z,100.00
2023-02-23T23:43:20.392Z,100.00
2023-02-23T23:45:52.021Z,100.00
2023-02-23T23:48:25.288Z,100.00
2023-02-23T23:50:56.800Z,100.00
2023-02-23T23:53:28.315Z,100.00
2023-02-23T23:55:59.816Z,100.00
2023-02-23T23:58:31.858Z,100.00
